Time;durP1;ratioP1;P1;durP2;ratioP2;P2;SDS_P1;SDS_P2;PMS_P1;PMS_P2;Temp;Humidity;BMP_temperature;BMP_pressure;BME280_temperature;BME280_humidity;BME280_pressure;Samples;Min_cycle;Max_cycle;Signal;HPM_P1;HPM_P2
2022/09/04 00:05:02;;;;;;;5.1;8.2;;;;;;;10.7;100;98900;;;;
2022/09/04 00:16:02;;;;;;;5.1;8.2;;;;;;;10.7;100;98900;;;;
2022/09/04 00:26:02;;;;;;;5.1;8.2;;;;;;;10.4;100;98900;;;;
2022/09/04 00:37:03;;;;;;;4.8;7.4;;;;;;;10.4;100;98890;;;;
2022/09/04 00:47:02;;;;;;;4.8;7.4;;;;;;;10.4;100;98900;;;;
2022/09/04 00:57:02;;;;;;;5.2;8;;;;;;;10.4;100;98910;;;;
2022/09/04 01:08:02;;;;;;;5.2;8;;;;;;;10.4;100;98910;;;;
2022/09/04 01:19:02;;;;;;;5.2;8;;;;;;;10.3;100;98910;;;;
2022/09/04 01:29:02;;;;;;;4.9;7.1;;;;;;;10.3;100;98900;;;;
2022/09/04 01:40:02;;;;;;;4.9;7.1;;;;;;;10.4;100;98900;;;;
2022/09/04 01:50:03;;;;;;;4.9;7.1;;;;;;;10.1;100;98910;;;;
2022/09/04 02:01:02;;;;;;;4.7;7.8;;;;;;;10.2;100;98910;;;;
2022/09/04 02:12:02;;;;;;;4.7;7.8;;;;;;;10.2;100;98910;;;;
2022/09/04 02:23:02;;;;;;;4.7;7.8;;;;;;;10.3;100;98910;;;;
2022/09/04 02:33:03;;;;;;;4.9;7;;;;;;;10.2;100;98910;;;;
2022/09/04 02:44:02;;;;;;;4.9;7;;;;;;;10.1;100;98910;;;;
2022/09/04 02:54:02;;;;;;;4.9;7;;;;;;;9.9;100;98910;;;;
2022/09/04 03:04:02;;;;;;;5.6;7.7;;;;;;;9.8;100;98910;;;;
2022/09/04 03:14:02;;;;;;;5.6;7.7;;;;;;;9.5;100;98910;;;;
2022/09/04 03:24:02;;;;;;;5.6;7.7;;;;;;;9.4;100;98900;;;;
2022/09/04 03:35:02;;;;;;;7.5;11.3;;;;;;;9.5;100;98920;;;;
2022/09/04 03:45:02;;;;;;;7.5;11.3;;;;;;;9.4;100;98920;;;;
2022/09/04 03:55:02;;;;;;;7.5;11.3;;;;;;;9.3;100;98910;;;;
2022/09/04 04:06:02;;;;;;;8;10.7;;;;;;;9.4;100;98920;;;;
2022/09/04 04:16:02;;;;;;;8;10.7;;;;;;;9.7;100;98940;;;;
2022/09/04 04:27:03;;;;;;;8.5;10.8;;;;;;;9.7;100;98930;;;;
2022/09/04 04:38:02;;;;;;;8.5;10.8;;;;;;;9.8;100;98950;;;;
2022/09/04 04:49:03;;;;;;;8.5;10.8;;;;;;;10.1;100;98970;;;;
2022/09/04 05:00:05;;;;;;;10.1;15;;;;;;;10.2;100;98970;;;;
2022/09/04 05:11:02;;;;;;;10.1;15;;;;;;;10.3;100;98980;;;;
2022/09/04 05:21:02;;;;;;;;;;;;;;;;;;;;;
2022/09/04 05:31:02;;;;;;;8.9;12.3;;;;;;;10.7;100;98990;;;;
2022/09/04 05:41:02;;;;;;;8.9;12.3;;;;;;;10.9;100;99010;;;;
2022/09/04 05:52:02;;;;;;;8.9;12.3;;;;;;;11.1;100;99020;;;;
2022/09/04 06:02:03;;;;;;;10.3;12.6;;;;;;;11.1;100;99020;;;;
2022/09/04 06:13:02;;;;;;;10.3;12.6;;;;;;;11.3;100;99030;;;;
2022/09/04 06:24:02;;;;;;;10.3;12.6;;;;;;;11.5;100;99040;;;;
2022/09/04 06:34:02;;;;;;;9.7;14.3;;;;;;;11.7;100;99050;;;;
2022/09/04 06:45:02;;;;;;;9.7;14.3;;;;;;;11.5;100;99050;;;;
2022/09/04 06:56:02;;;;;;;8.8;11.6;;;;;;;11.6;100;99070;;;;
2022/09/04 07:06:02;;;;;;;8.8;11.6;;;;;;;11.7;100;99070;;;;
2022/09/04 07:17:02;;;;;;;8.8;11.6;;;;;;;11.7;100;99060;;;;
2022/09/04 07:28:04;;;;;;;8.3;11.5;;;;;;;12.3;100;99070;;;;
2022/09/04 07:38:02;;;;;;;8.3;11.5;;;;;;;12.7;100;99070;;;;
2022/09/04 07:48:02;;;;;;;8.3;11.5;;;;;;;13.3;100;99090;;;;
2022/09/04 07:58:02;;;;;;;6.2;9.8;;;;;;;13.6;100;99100;;;;
2022/09/04 08:09:02;;;;;;;6.2;9.8;;;;;;;14.1;100;99110;;;;
2022/09/04 08:20:02;;;;;;;6.2;9.8;;;;;;;14.9;100;99120;;;;
2022/09/04 08:30:03;;;;;;;5.7;8.8;;;;;;;15.7;100;99130;;;;
2022/09/04 08:41:03;;;;;;;5.7;8.8;;;;;;;16.4;100;99130;;;;
2022/09/04 08:52:03;;;;;;;5.7;8.8;;;;;;;16.5;100;99150;;;;
2022/09/04 09:02:02;;;;;;;4;6.1;;;;;;;16.8;100;99150;;;;
2022/09/04 09:13:02;;;;;;;4;6.1;;;;;;;16.7;100;99150;;;;
2022/09/04 09:24:02;;;;;;;4;6.1;;;;;;;17;100;99150;;;;
2022/09/04 09:35:03;;;;;;;4.6;7.3;;;;;;;16.7;100;99180;;;;
2022/09/04 09:45:02;;;;;;;4.6;7.3;;;;;;;16.9;100;99200;;;;
2022/09/04 09:55:02;;;;;;;4.6;7.3;;;;;;;16.6;100;99190;;;;
2022/09/04 10:06:02;;;;;;;4.5;7.9;;;;;;;16.7;100;99190;;;;
2022/09/04 10:16:02;;;;;;;4.5;7.9;;;;;;;16.8;100;99190;;;;
2022/09/04 10:27:02;;;;;;;4.1;6.7;;;;;;;16.9;100;99190;;;;
2022/09/04 10:37:03;;;;;;;4.1;6.7;;;;;;;17.1;100;99200;;;;
2022/09/04 10:48:02;;;;;;;4.1;6.7;;;;;;;17.8;100;99210;;;;
2022/09/04 10:58:02;;;;;;;4.3;6.7;;;;;;;18;100;99210;;;;
2022/09/04 11:09:02;;;;;;;4.3;6.7;;;;;;;18.1;100;99210;;;;
2022/09/04 11:19:02;;;;;;;4.3;6.7;;;;;;;18.1;100;99210;;;;
2022/09/04 11:30:02;;;;;;;4.5;7.3;;;;;;;18.4;100;99220;;;;
2022/09/04 11:41:02;;;;;;;4.5;7.3;;;;;;;18;100;99230;;;;
2022/09/04 11:52:03;;;;;;;4.5;7.3;;;;;;;19;100;99220;;;;
2022/09/04 12:02:02;;;;;;;4.2;7.5;;;;;;;19.2;100;99210;;;;
2022/09/04 12:12:02;;;;;;;4.2;7.5;;;;;;;19.9;100;99210;;;;
2022/09/04 12:23:02;;;;;;;4.2;7.5;;;;;;;19.9;100;99220;;;;
2022/09/04 12:33:02;;;;;;;4;6.8;;;;;;;19.9;100;99230;;;;
2022/09/04 12:43:03;;;;;;;4;6.8;;;;;;;19.5;100;99220;;;;
2022/09/04 12:54:02;;;;;;;4;6.8;;;;;;;19.7;100;99220;;;;
2022/09/04 13:05:02;;;;;;;4;6.5;;;;;;;19.5;100;99210;;;;
2022/09/04 13:15:02;;;;;;;4;6.5;;;;;;;19.6;100;99220;;;;
2022/09/04 13:26:02;;;;;;;4.2;7.2;;;;;;;19.6;100;99220;;;;
2022/09/04 13:36:02;;;;;;;4.2;7.2;;;;;;;19.4;100;99220;;;;
2022/09/04 13:46:02;;;;;;;4.2;7.2;;;;;;;19.6;100;99230;;;;
2022/09/04 13:57:02;;;;;;;3.9;6.1;;;;;;;19.3;100;99230;;;;
2022/09/04 14:08:02;;;;;;;3.9;6.1;;;;;;;18.9;100;99220;;;;
2022/09/04 14:19:02;;;;;;;3.9;6.1;;;;;;;19;100;99220;;;;
2022/09/04 14:30:02;;;;;;;8;12.1;;;;;;;18.7;100;99220;;;;
2022/09/04 14:40:02;;;;;;;8;12.1;;;;;;;18.8;100;99220;;;;
2022/09/04 14:51:03;;;;;;;8;12.1;;;;;;;19.1;100;99220;;;;
2022/09/04 15:02:02;;;;;;;6;9.6;;;;;;;19.1;100;99220;;;;
2022/09/04 15:13:04;;;;;;;6;9.6;;;;;;;19.2;100;99230;;;;
2022/09/04 15:23:02;;;;;;;6;9.6;;;;;;;19.1;100;99230;;;;
2022/09/04 15:34:02;;;;;;;5.1;7.3;;;;;;;19.1;100;99220;;;;
2022/09/04 15:45:02;;;;;;;5.1;7.3;;;;;;;19.2;100;99230;;;;
2022/09/04 15:55:02;;;;;;;5.1;7.3;;;;;;;18.8;100;99220;;;;
2022/09/04 16:06:04;;;;;;;4.7;6.4;;;;;;;18.5;100;99220;;;;
2022/09/04 16:16:02;;;;;;;4.7;6.4;;;;;;;18.4;100;99220;;;;
2022/09/04 16:27:02;;;;;;;5.6;8.8;;;;;;;18.5;100;99210;;;;
2022/09/04 16:37:02;;;;;;;5.6;8.8;;;;;;;18.4;100;99220;;;;
2022/09/04 16:48:04;;;;;;;5.6;8.8;;;;;;;18.3;100;99230;;;;
2022/09/04 16:59:02;;;;;;;;;;;;;;;18.2;;99240;;;;
2022/09/04 17:09:03;;;;;;;6.2;8.3;;;;;;;18;100;99260;;;;
2022/09/04 17:19:03;;;;;;;6.2;8.3;;;;;;;17.6;100;99260;;;;
2022/09/04 17:30:02;;;;;;;6.2;9.6;;;;;;;17.6;100;99260;;;;
2022/09/04 17:41:02;;;;;;;6.2;9.6;;;;;;;17.4;100;99280;;;;
2022/09/04 17:51:02;;;;;;;6.2;9.6;;;;;;;17.1;100;99290;;;;
2022/09/04 18:02:02;;;;;;;6.6;9.5;;;;;;;16.9;100;99300;;;;
2022/09/04 18:13:03;;;;;;;6.6;9.5;;;;;;;16.9;100;99310;;;;
2022/09/04 18:23:02;;;;;;;6.6;9.5;;;;;;;16.9;100;99320;;;;
2022/09/04 18:34:02;;;;;;;11.4;15.7;;;;;;;16.8;100;99330;;;;
2022/09/04 18:44:02;;;;;;;11.4;15.7;;;;;;;16.8;100;99340;;;;
2022/09/04 18:55:02;;;;;;;11.4;15.7;;;;;;;16.5;100;99350;;;;
2022/09/04 19:05:02;;;;;;;13.5;18.6;;;;;;;16.5;100;99350;;;;
2022/09/04 19:16:02;;;;;;;13.5;18.6;;;;;;;16.4;100;99360;;;;
2022/09/04 19:26:03;;;;;;;8.5;11.7;;;;;;;16.5;100;99360;;;;
2022/09/04 19:37:02;;;;;;;8.5;11.7;;;;;;;16.4;100;99360;;;;
2022/09/04 19:48:02;;;;;;;8.5;11.7;;;;;;;16.2;100;99370;;;;
2022/09/04 19:59:03;;;;;;;10.6;13.3;;;;;;;16.1;100;99370;;;;
2022/09/04 20:10:02;;;;;;;10.6;13.3;;;;;;;15.8;100;99360;;;;
2022/09/04 20:20:03;;;;;;;10.6;13.3;;;;;;;15.9;100;99370;;;;
2022/09/04 20:31:03;;;;;;;8.3;10.7;;;;;;;15.9;100;99380;;;;
2022/09/04 20:42:02;;;;;;;8.3;10.7;;;;;;;15.8;100;99380;;;;
2022/09/04 20:53:02;;;;;;;8.3;10.7;;;;;;;15.6;100;99370;;;;
2022/09/04 21:04:03;;;;;;;8.6;11.4;;;;;;;15.3;100;99390;;;;
2022/09/04 21:14:02;;;;;;;8.6;11.4;;;;;;;15;100;99380;;;;
2022/09/04 21:24:03;;;;;;;8.6;11.4;;;;;;;14.8;100;99400;;;;
2022/09/04 21:35:03;;;;;;;8.5;11.8;;;;;;;14.8;100;99400;;;;
2022/09/04 21:46:03;;;;;;;8.5;11.8;;;;;;;14.9;100;99390;;;;
2022/09/04 21:57:02;;;;;;;8.1;10.2;;;;;;;14.8;100;99390;;;;
2022/09/04 22:08:03;;;;;;;8.1;10.2;;;;;;;14.8;100;99390;;;;
2022/09/04 22:18:03;;;;;;;8.1;10.2;;;;;;;14.7;100;99400;;;;
2022/09/04 22:29:03;;;;;;;8.8;11.9;;;;;;;14.5;100;99410;;;;
2022/09/04 22:39:03;;;;;;;8.8;11.9;;;;;;;14.2;100;99400;;;;
2022/09/04 22:50:03;;;;;;;8.8;11.9;;;;;;;14;100;99420;;;;
2022/09/04 23:00:03;;;;;;;8.5;11.7;;;;;;;13.7;100;99420;;;;
2022/09/04 23:11:03;;;;;;;8.5;11.7;;;;;;;13.6;100;99430;;;;
2022/09/04 23:21:03;;;;;;;8.5;11.7;;;;;;;13.4;100;99430;;;;
2022/09/04 23:32:04;;;;;;;9.3;15.1;;;;;;;13.3;100;99440;;;;
2022/09/04 23:42:03;;;;;;;9.3;15.1;;;;;;;13.3;100;99440;;;;
2022/09/04 23:52:03;;;;;;;9.3;15.1;;;;;;;13.2;100;99440;;;;
